Shiner, Texas
Current Conditions -  °F | °C
As of 3:35 AM on Thursday 18 Dec 2014 (Local Time) from KT20 Reporting Station
Haze Haze  
Wind Chill: 55°   Ceiling: 400
Heat Index: 55°   Visibility: 5mi
Dew Point: 54°   Wind: 6mph
Humidity: 96%   Direction: 20°NNE
Pressure: 30.06"   Gusts: NA
Location:  29.43°N, 97.17°W
Report Text: KT20 180935Z AUTO 02005KT 5SM BR OVC004 13/12 A3006 RMK AO2 T01300123
Loading
Personal Weather Stations






























Interactive Weather Map New forecast layout! Learn more

10-Day Weather Forecast

Advertisements
Track Severe Weather on mobile